createdAt,value
2022-12-23T00:01:00.996Z,4.81
2022-12-23T00:03:29.147Z,4.82
2022-12-23T00:05:56.071Z,4.82
2022-12-23T00:08:23.085Z,4.82
2022-12-23T00:10:51.510Z,4.82
2022-12-23T00:13:37.158Z,4.85
2022-12-23T00:16:09.495Z,4.81
2022-12-23T00:18:36.815Z,4.82
2022-12-23T00:21:12.418Z,4.83
2022-12-23T00:23:41.672Z,4.81
2022-12-23T00:26:14.051Z,4.77
2022-12-23T00:28:40.533Z,4.78
2022-12-23T00:31:08.180Z,4.77
2022-12-23T00:33:43.234Z,4.81
2022-12-23T00:36:23.424Z,4.84
2022-12-23T00:39:09.121Z,4.86
2022-12-23T00:41:54.755Z,4.85
2022-12-23T00:44:21.439Z,4.88
2022-12-23T00:46:48.405Z,4.88
2022-12-23T00:49:35.218Z,4.86
2022-12-23T00:52:02.292Z,4.83
2022-12-23T00:54:29.008Z,4.88
2022-12-23T00:56:55.349Z,4.91
2022-12-23T00:59:21.823Z,4.90
2022-12-23T01:02:06.919Z,4.88
2022-12-23T01:04:52.682Z,4.87
2022-12-23T01:07:19.412Z,4.86
2022-12-23T01:09:45.960Z,4.86
2022-12-23T01:12:12.380Z,4.88
2022-12-23T01:14:39.175Z,4.87
2022-12-23T01:17:07.652Z,4.91
2022-12-23T01:19:34.946Z,4.91
2022-12-23T01:22:01.295Z,4.87
2022-12-23T01:24:29.471Z,4.86
2022-12-23T01:26:56.114Z,4.87
2022-12-23T01:29:22.813Z,4.90
2022-12-23T01:31:49.205Z,4.91
2022-12-23T01:34:15.677Z,4.91
2022-12-23T01:36:42.018Z,4.85
2022-12-23T01:39:08.520Z,4.91
2022-12-23T01:41:53.566Z,4.95
2022-12-23T01:44:55.644Z,4.99
2022-12-23T01:47:30.856Z,4.99
2022-12-23T01:50:12.680Z,4.93
2022-12-23T01:52:49.556Z,4.95
2022-12-23T01:55:20.877Z,5.00
2022-12-23T01:57:48.495Z,5.03
2022-12-23T02:00:34.613Z,5.04
2022-12-23T02:03:19.722Z,5.01
2022-12-23T02:05:48.272Z,4.97
2022-12-23T02:08:35.471Z,4.92
2022-12-23T02:11:19.352Z,4.97
2022-12-23T02:14:30.774Z,5.00
2022-12-23T02:17:25.154Z,4.98
2022-12-23T02:20:17.604Z,4.92
2022-12-23T02:23:11.912Z,4.97
2022-12-23T02:25:53.515Z,4.95
2022-12-23T02:28:57.592Z,4.98
2022-12-23T02:31:38.650Z,4.99
2022-12-23T02:34:22.643Z,4.94
2022-12-23T02:36:57.822Z,4.90
2022-12-23T02:39:42.344Z,4.91
2022-12-23T02:42:15.357Z,4.93
2022-12-23T02:44:50.133Z,4.92
2022-12-23T02:47:23.747Z,4.96
2022-12-23T02:50:02.168Z,4.96
2022-12-23T02:52:34.187Z,4.93
2022-12-23T02:55:08.434Z,4.97
2022-12-23T02:57:38.951Z,4.94
2022-12-23T03:00:07.224Z,4.94
2022-12-23T03:02:37.555Z,4.90
2022-12-23T03:05:04.824Z,4.88
2022-12-23T03:07:37.939Z,4.87
2022-12-23T03:10:09.262Z,4.88
2022-12-23T03:12:54.027Z,4.86
2022-12-23T03:15:38.695Z,4.90
2022-12-23T03:18:16.190Z,4.90
2022-12-23T03:20:51.627Z,4.90
2022-12-23T03:23:28.823Z,4.92
2022-12-23T03:26:20.607Z,4.85
2022-12-23T03:29:03.780Z,4.87
2022-12-23T03:31:33.337Z,4.85
2022-12-23T03:34:05.590Z,4.91
2022-12-23T03:36:36.582Z,4.95
2022-12-23T03:39:06.705Z,4.96
2022-12-23T03:41:42.565Z,4.95
2022-12-23T03:44:16.189Z,4.93
2022-12-23T03:46:54.416Z,4.91
2022-12-23T03:49:28.732Z,4.91
2022-12-23T03:52:07.199Z,4.91
2022-12-23T03:54:48.820Z,4.92
2022-12-23T03:57:15.770Z,4.96
2022-12-23T03:59:50.468Z,4.91
2022-12-23T04:02:45.641Z,4.90
2022-12-23T04:05:39.615Z,4.88
2022-12-23T04:08:08.914Z,4.85
2022-12-23T04:10:35.775Z,4.84
2022-12-23T04:13:02.190Z,4.83
2022-12-23T04:15:29.317Z,4.77
2022-12-23T04:17:57.012Z,4.80
2022-12-23T04:20:24.141Z,4.81
2022-12-23T04:22:50.591Z,4.84
2022-12-23T04:25:17.853Z,4.86
2022-12-23T04:27:44.399Z,4.88
2022-12-23T04:30:13.635Z,4.86
2022-12-23T04:32:40.857Z,4.83
2022-12-23T04:35:07.657Z,4.85
2022-12-23T04:37:34.169Z,4.85
2022-12-23T04:40:00.649Z,4.85
2022-12-23T04:42:26.981Z,4.81
2022-12-23T04:44:53.487Z,4.79
2022-12-23T04:47:19.904Z,4.80
2022-12-23T04:49:46.368Z,4.84
2022-12-23T04:52:12.850Z,4.85
2022-12-23T04:54:45.464Z,4.89
2022-12-23T04:57:12.602Z,4.86
2022-12-23T04:59:38.998Z,4.89
2022-12-23T05:02:05.576Z,4.80
2022-12-23T05:04:32.252Z,4.81
2022-12-23T05:06:58.621Z,4.77
2022-12-23T05:09:25.056Z,4.77
2022-12-23T05:11:51.413Z,4.78
2022-12-23T05:14:17.915Z,4.74
2022-12-23T05:16:44.309Z,4.75
2022-12-23T05:19:11.189Z,4.72
2022-12-23T05:21:37.917Z,4.68
2022-12-23T05:24:04.504Z,4.67
2022-12-23T05:26:30.859Z,4.71
2022-12-23T05:28:57.232Z,4.66
2022-12-23T05:31:23.657Z,4.70
2022-12-23T05:33:50.160Z,4.78
2022-12-23T05:36:16.592Z,4.81
2022-12-23T05:38:43.029Z,4.79
2022-12-23T05:41:09.517Z,4.86
2022-12-23T05:43:36.031Z,4.88
2022-12-23T05:46:02.418Z,4.84
2022-12-23T05:48:28.926Z,4.84
2022-12-23T05:50:55.260Z,4.83
2022-12-23T05:53:22.075Z,4.81
2022-12-23T05:55:48.553Z,4.83
2022-12-23T05:58:15.117Z,4.84
2022-12-23T06:00:41.459Z,4.85
2022-12-23T06:03:08.085Z,4.87
2022-12-23T06:05:37.593Z,4.85
2022-12-23T06:08:04.201Z,4.88
2022-12-23T06:10:30.536Z,4.90
2022-12-23T06:12:57.000Z,4.88
2022-12-23T06:15:23.334Z,4.85
2022-12-23T06:17:49.816Z,4.86
2022-12-23T06:20:20.332Z,4.88
2022-12-23T06:22:47.321Z,4.86
2022-12-23T06:25:13.728Z,4.84
2022-12-23T06:27:40.215Z,4.85
2022-12-23T06:30:07.494Z,4.88
2022-12-23T06:32:38.246Z,4.92
2022-12-23T06:35:05.910Z,4.84
2022-12-23T06:37:32.455Z,4.78
2022-12-23T06:39:58.793Z,4.77
2022-12-23T06:42:25.171Z,4.78
2022-12-23T06:44:51.613Z,4.79
2022-12-23T06:47:18.181Z,4.77
2022-12-23T06:49:44.521Z,4.79
2022-12-23T06:52:10.902Z,4.80
2022-12-23T06:54:37.227Z,4.82
2022-12-23T06:57:03.821Z,4.85
2022-12-23T06:59:30.643Z,4.87
2022-12-23T07:01:57.189Z,4.82
2022-12-23T07:04:23.652Z,4.84
2022-12-23T07:06:50.167Z,4.82
2022-12-23T07:09:16.518Z,4.81
2022-12-23T07:11:42.871Z,4.78
2022-12-23T07:14:09.212Z,4.72
2022-12-23T07:16:35.752Z,4.71
2022-12-23T07:19:03.003Z,4.78
2022-12-23T07:21:30.254Z,4.82
2022-12-23T07:23:56.851Z,4.79
2022-12-23T07:26:23.341Z,4.86
2022-12-23T07:28:49.678Z,4.80
2022-12-23T07:31:16.679Z,4.78
2022-12-23T07:33:43.351Z,4.77
2022-12-23T07:36:09.992Z,4.75
2022-12-23T07:38:36.389Z,4.71
2022-12-23T07:41:02.767Z,4.70
2022-12-23T07:43:29.180Z,4.73
2022-12-23T07:45:59.990Z,4.73
2022-12-23T07:48:26.944Z,4.71
2022-12-23T07:50:53.310Z,4.75
2022-12-23T07:53:19.801Z,4.72
2022-12-23T07:55:49.072Z,4.73
2022-12-23T07:58:17.970Z,4.75
2022-12-23T08:00:44.301Z,4.72
2022-12-23T08:03:12.093Z,4.76
2022-12-23T08:05:38.475Z,4.76
2022-12-23T08:08:04.907Z,4.76
2022-12-23T08:10:31.295Z,4.74
2022-12-23T08:13:00.990Z,4.78
2022-12-23T08:15:27.346Z,4.80
2022-12-23T08:17:56.207Z,4.76
2022-12-23T08:20:22.577Z,4.79
2022-12-23T08:22:49.010Z,4.83
2022-12-23T08:25:15.369Z,4.81
2022-12-23T08:27:41.734Z,4.81
2022-12-23T08:30:08.939Z,4.80
2022-12-23T08:32:35.321Z,4.84
2022-12-23T08:35:01.721Z,4.82
2022-12-23T08:37:28.125Z,4.84
2022-12-23T08:39:54.489Z,4.84
2022-12-23T08:42:20.971Z,4.84
2022-12-23T08:44:47.356Z,4.84
2022-12-23T08:47:13.743Z,4.82
2022-12-23T08:49:40.133Z,4.83
2022-12-23T08:52:06.710Z,4.80
2022-12-23T08:54:33.296Z,4.83
2022-12-23T08:56:59.668Z,4.79
2022-12-23T08:59:26.210Z,4.79
2022-12-23T09:01:52.892Z,4.78
2022-12-23T09:04:19.415Z,4.81
2022-12-23T09:06:45.807Z,4.87
2022-12-23T09:09:14.318Z,4.90
2022-12-23T09:11:42.008Z,4.90
2022-12-23T09:14:10.059Z,4.91
2022-12-23T09:16:37.086Z,4.85
2022-12-23T09:19:04.322Z,4.86
2022-12-23T09:21:30.846Z,4.84
2022-12-23T09:23:57.217Z,4.85
2022-12-23T09:26:26.132Z,4.85
2022-12-23T09:28:52.922Z,4.87
2022-12-23T09:31:20.270Z,4.86
2022-12-23T09:33:48.999Z,4.91
2022-12-23T09:36:15.950Z,4.90
2022-12-23T09:38:42.625Z,4.93
2022-12-23T09:41:29.542Z,4.95
2022-12-23T09:43:58.711Z,4.96
2022-12-23T09:46:28.736Z,4.97
2022-12-23T09:49:11.301Z,4.97
2022-12-23T09:51:38.479Z,5.02
2022-12-23T09:54:24.442Z,5.06
2022-12-23T09:57:17.777Z,5.05
2022-12-23T10:00:08.349Z,5.10
2022-12-23T10:02:46.948Z,5.14
2022-12-23T10:05:22.479Z,5.16
2022-12-23T10:07:58.244Z,5.13
2022-12-23T10:10:42.729Z,5.11
2022-12-23T10:13:24.618Z,5.12
2022-12-23T10:15:51.873Z,5.15
2022-12-23T10:18:27.782Z,5.18
2022-12-23T10:21:01.237Z,5.14
2022-12-23T10:23:33.881Z,5.13
2022-12-23T10:26:02.351Z,5.15
2022-12-23T10:28:29.527Z,5.17
2022-12-23T10:32:00.088Z,5.15
2022-12-23T10:34:05.958Z,5.14
2022-12-23T10:36:47.069Z,5.17
2022-12-23T10:39:25.023Z,5.16
2022-12-23T10:42:30.685Z,5.11
2022-12-23T10:45:13.803Z,5.16
2022-12-23T10:48:13.558Z,5.21
2022-12-23T10:50:53.689Z,5.20
2022-12-23T10:53:48.152Z,5.19
2022-12-23T10:56:15.004Z,5.22
2022-12-23T10:58:45.034Z,5.20
2022-12-23T11:01:24.102Z,5.21
2022-12-23T11:04:01.776Z,5.16
2022-12-23T11:06:34.848Z,5.16
2022-12-23T11:09:04.366Z,5.18
2022-12-23T11:11:53.338Z,5.18
2022-12-23T11:14:34.551Z,5.20
2022-12-23T11:17:01.396Z,5.19
2022-12-23T11:19:28.153Z,5.27
2022-12-23T11:21:58.420Z,5.27
2022-12-23T11:24:26.811Z,5.28
2022-12-23T11:27:05.974Z,5.28
2022-12-23T11:29:35.727Z,5.29
2022-12-23T11:32:04.922Z,5.28
2022-12-23T11:34:37.504Z,5.34
2022-12-23T11:37:07.427Z,5.36
2022-12-23T11:39:36.811Z,5.37
2022-12-23T11:42:15.646Z,5.37
2022-12-23T11:44:45.965Z,5.36
2022-12-23T11:47:39.825Z,5.41
2022-12-23T11:50:44.577Z,5.44
2022-12-23T11:53:22.841Z,5.47
2022-12-23T11:56:07.501Z,5.47
2022-12-23T11:58:47.441Z,5.44
2022-12-23T12:01:18.573Z,5.43
2022-12-23T12:03:50.076Z,5.44
2022-12-23T12:06:19.363Z,5.53
2022-12-23T12:08:50.227Z,5.59
2022-12-23T12:11:29.649Z,5.62
2022-12-23T12:14:02.558Z,5.56
2022-12-23T12:16:47.323Z,5.56
2022-12-23T12:19:35.813Z,5.57
2022-12-23T12:22:13.825Z,5.55
2022-12-23T12:24:53.518Z,5.50
2022-12-23T12:27:28.099Z,5.39
2022-12-23T12:30:08.068Z,5.34
2022-12-23T12:32:51.339Z,5.39
2022-12-23T12:35:53.460Z,5.40
2022-12-23T12:38:30.030Z,5.44
2022-12-23T12:41:08.617Z,5.44
2022-12-23T12:43:40.680Z,5.44
2022-12-23T12:46:32.252Z,5.47
2022-12-23T12:49:17.520Z,5.42
2022-12-23T12:51:58.306Z,5.48
2022-12-23T12:54:35.170Z,5.49
2022-12-23T12:57:02.315Z,5.49
2022-12-23T12:59:33.489Z,5.48
2022-12-23T13:02:41.706Z,5.50
2022-12-23T13:05:34.749Z,5.56
2022-12-23T13:08:20.847Z,5.57
2022-12-23T13:10:59.201Z,5.56
2022-12-23T13:13:56.109Z,5.53
2022-12-23T13:16:31.510Z,5.53
2022-12-23T13:19:04.793Z,5.52
2022-12-23T13:21:35.877Z,5.46
2022-12-23T13:24:38.079Z,5.42
2022-12-23T13:27:21.759Z,5.45
2022-12-23T13:30:12.062Z,5.48
2022-12-23T13:33:05.353Z,5.40
2022-12-23T13:35:37.783Z,5.41
2022-12-23T13:38:41.925Z,5.39
2022-12-23T13:41:32.461Z,5.37
2022-12-23T13:44:07.209Z,5.37
2022-12-23T13:46:57.080Z,5.43
2022-12-23T13:49:59.482Z,5.48
2022-12-23T13:53:04.355Z,5.42
2022-12-23T13:56:02.660Z,5.37
2022-12-23T13:58:33.107Z,5.44
2022-12-23T14:01:08.842Z,5.48
2022-12-23T14:03:37.575Z,5.51
2022-12-23T14:06:25.129Z,5.51
2022-12-23T14:08:53.431Z,5.47
2022-12-23T14:11:33.160Z,5.50
2022-12-23T14:14:02.498Z,5.52
2022-12-23T14:16:55.802Z,5.49
2022-12-23T14:19:42.386Z,5.50
2022-12-23T14:22:28.342Z,5.42
2022-12-23T14:25:03.932Z,5.46
2022-12-23T14:27:58.135Z,5.46
2022-12-23T14:30:36.649Z,5.49
2022-12-23T14:33:14.675Z,5.46
2022-12-23T14:35:42.939Z,5.53
2022-12-23T14:38:23.433Z,5.53
2022-12-23T14:40:52.828Z,5.55
2022-12-23T14:43:21.952Z,5.57
2022-12-23T14:46:06.378Z,5.51
2022-12-23T14:48:35.675Z,5.51
2022-12-23T14:51:08.327Z,5.48
2022-12-23T14:53:37.362Z,5.45
2022-12-23T14:56:09.686Z,5.47
2022-12-23T14:58:51.717Z,5.45
2022-12-23T15:01:32.919Z,5.42
2022-12-23T15:04:07.271Z,5.39
2022-12-23T15:06:40.739Z,5.37
2022-12-23T15:09:09.552Z,5.37
2022-12-23T15:11:37.158Z,5.34
2022-12-23T15:14:09.411Z,5.27
2022-12-23T15:16:40.242Z,5.25
2022-12-23T15:19:17.870Z,5.27
2022-12-23T15:21:48.179Z,5.24
2022-12-23T15:24:21.539Z,5.19
2022-12-23T15:27:24.570Z,5.19
2022-12-23T15:29:43.565Z,5.17
2022-12-23T15:32:10.536Z,5.13
2022-12-23T15:34:36.929Z,5.07
2022-12-23T15:37:03.549Z,5.03
2022-12-23T15:39:34.918Z,5.04
2022-12-23T15:42:02.209Z,5.00
2022-12-23T15:44:38.284Z,5.02
2022-12-23T15:47:24.436Z,5.02
2022-12-23T15:49:51.338Z,5.01
2022-12-23T15:52:20.632Z,4.92
2022-12-23T15:55:03.517Z,4.92
2022-12-23T15:57:30.913Z,4.99
2022-12-23T15:59:58.702Z,5.02
2022-12-23T16:03:05.579Z,5.02
2022-12-23T16:05:26.729Z,5.05
2022-12-23T16:08:11.718Z,5.04
2022-12-23T16:10:38.964Z,5.04
2022-12-23T16:13:15.914Z,5.06
2022-12-23T16:15:42.559Z,5.06
2022-12-23T16:18:23.557Z,5.05
2022-12-23T16:20:53.796Z,5.07
2022-12-23T16:23:21.593Z,5.08
2022-12-23T16:25:50.861Z,5.07
2022-12-23T16:28:35.740Z,5.00
2022-12-23T16:31:06.844Z,4.98
2022-12-23T16:33:41.841Z,4.92
2022-12-23T16:36:26.211Z,4.87
2022-12-23T16:39:11.044Z,4.83
2022-12-23T16:41:37.711Z,4.82
2022-12-23T16:44:04.151Z,4.84
2022-12-23T16:46:37.633Z,4.85
2022-12-23T16:49:08.335Z,4.88
2022-12-23T16:51:35.759Z,4.88
2022-12-23T16:54:02.139Z,4.90
2022-12-23T16:56:33.997Z,4.90
2022-12-23T16:59:00.354Z,4.82
2022-12-23T17:01:33.203Z,4.76
2022-12-23T17:03:59.731Z,4.77
2022-12-23T17:06:26.337Z,4.75
2022-12-23T17:08:53.323Z,4.82
2022-12-23T17:11:25.498Z,4.83
2022-12-23T17:13:55.313Z,4.83
2022-12-23T17:16:25.625Z,4.82
2022-12-23T17:18:53.118Z,4.79
2022-12-23T17:21:24.275Z,4.76
2022-12-23T17:23:54.539Z,4.69
2022-12-23T17:26:20.936Z,4.67
2022-12-23T17:28:47.327Z,4.67
2022-12-23T17:31:15.488Z,4.65
2022-12-23T17:33:44.664Z,4.67
2022-12-23T17:38:46.232Z,4.63
2022-12-23T17:41:28.438Z,4.63
2022-12-23T17:43:55.999Z,4.65
2022-12-23T17:46:22.860Z,4.71
2022-12-23T17:48:49.417Z,4.72
2022-12-23T17:51:17.803Z,4.70
2022-12-23T17:53:45.349Z,4.69
2022-12-23T17:56:13.628Z,4.68
2022-12-23T17:58:41.162Z,4.69
2022-12-23T18:01:15.937Z,4.73
2022-12-23T18:03:42.337Z,4.75
2022-12-23T18:06:16.962Z,4.78
2022-12-23T18:08:43.791Z,4.79
2022-12-23T18:11:20.355Z,4.84
2022-12-23T18:13:48.979Z,4.86
2022-12-23T18:16:15.390Z,4.91
2022-12-23T18:18:46.213Z,4.96
2022-12-23T18:21:26.771Z,4.99
2022-12-23T18:23:59.692Z,5.01
2022-12-23T18:26:26.099Z,4.98
2022-12-23T18:28:54.243Z,5.00
2022-12-23T18:31:23.940Z,4.94
2022-12-23T18:33:51.691Z,4.96
2022-12-23T18:36:27.102Z,5.00
2022-12-23T18:38:54.774Z,5.03
2022-12-23T18:41:22.119Z,5.05
2022-12-23T18:43:48.770Z,5.01
2022-12-23T18:46:15.171Z,4.99
2022-12-23T18:48:41.795Z,5.01
2022-12-23T18:51:14.491Z,4.94
2022-12-23T18:53:41.641Z,4.96
2022-12-23T18:56:12.755Z,4.92
2022-12-23T18:58:39.359Z,4.93
2022-12-23T19:01:05.816Z,4.99
2022-12-23T19:03:32.364Z,4.99
2022-12-23T19:06:06.313Z,4.93
2022-12-23T19:08:34.233Z,4.93
2022-12-23T19:11:01.335Z,4.97
2022-12-23T19:13:28.328Z,4.94
2022-12-23T19:15:54.920Z,4.95
2022-12-23T19:18:21.888Z,4.97
2022-12-23T19:20:48.847Z,5.00
2022-12-23T19:23:15.972Z,5.03
2022-12-23T19:25:50.749Z,4.98
2022-12-23T19:28:22.055Z,4.95
2022-12-23T19:30:48.859Z,4.88
2022-12-23T19:33:15.441Z,4.95
2022-12-23T19:35:42.497Z,4.96
2022-12-23T19:38:08.848Z,4.96
2022-12-23T19:40:35.481Z,4.99
2022-12-23T19:43:02.533Z,5.04
2022-12-23T19:45:29.100Z,5.05
2022-12-23T19:47:55.436Z,5.01
2022-12-23T19:50:22.381Z,4.99
2022-12-23T19:52:50.031Z,4.93
2022-12-23T19:55:16.532Z,4.95
2022-12-23T19:57:43.130Z,4.95
2022-12-23T20:00:10.082Z,4.96
2022-12-23T20:02:36.728Z,4.96
2022-12-23T20:05:03.879Z,5.02
2022-12-23T20:07:30.200Z,5.01
2022-12-23T20:09:56.599Z,4.98
2022-12-23T20:12:23.462Z,4.98
2022-12-23T20:14:49.825Z,5.00
2022-12-23T20:17:16.177Z,5.01
2022-12-23T20:19:46.013Z,5.00
2022-12-23T20:22:13.006Z,4.98
2022-12-23T20:24:39.591Z,4.88
2022-12-23T20:27:10.953Z,4.91
2022-12-23T20:29:38.546Z,4.88
2022-12-23T20:32:05.160Z,4.97
2022-12-23T20:34:38.378Z,4.94
2022-12-23T20:37:06.173Z,4.90
2022-12-23T20:39:32.786Z,4.88
2022-12-23T20:41:59.206Z,4.91
2022-12-23T20:44:35.021Z,4.90
2022-12-23T20:47:03.938Z,4.89
2022-12-23T20:49:30.841Z,4.90
2022-12-23T20:51:57.343Z,4.88
2022-12-23T20:54:31.749Z,4.84
2022-12-23T20:56:59.672Z,4.88
2022-12-23T20:59:26.093Z,4.87
2022-12-23T21:01:52.513Z,4.90
2022-12-23T21:04:19.222Z,4.90
2022-12-23T21:06:45.651Z,4.84
2022-12-23T21:09:14.525Z,4.82
2022-12-23T21:11:43.579Z,4.81
2022-12-23T21:14:10.552Z,4.85
2022-12-23T21:16:38.046Z,4.83
2022-12-23T21:19:06.223Z,4.84
2022-12-23T21:21:32.761Z,4.86
2022-12-23T21:24:04.805Z,4.87
2022-12-23T21:26:33.414Z,4.85
2022-12-23T21:29:01.111Z,4.87
2022-12-23T21:31:29.607Z,4.85
2022-12-23T21:33:56.917Z,4.84
2022-12-23T21:36:26.814Z,4.87
2022-12-23T21:38:53.489Z,4.85
2022-12-23T21:41:22.950Z,4.82
2022-12-23T21:43:50.283Z,4.80
2022-12-23T21:46:19.693Z,4.85
2022-12-23T21:48:46.713Z,4.84
2022-12-23T21:51:22.205Z,4.84
2022-12-23T21:53:51.047Z,4.83
2022-12-23T21:56:19.945Z,4.86
2022-12-23T21:58:46.698Z,4.81
2022-12-23T22:01:15.997Z,4.80
2022-12-23T22:03:43.939Z,4.79
2022-12-23T22:06:14.402Z,4.79
2022-12-23T22:08:40.883Z,4.74
2022-12-23T22:11:12.938Z,4.77
2022-12-23T22:13:39.988Z,4.77
2022-12-23T22:16:11.393Z,4.78
2022-12-23T22:18:38.918Z,4.76
2022-12-23T22:21:07.273Z,4.77
2022-12-23T22:23:33.663Z,4.79
2022-12-23T22:26:00.198Z,4.81
2022-12-23T22:28:26.794Z,4.82
2022-12-23T22:30:53.355Z,4.75
2022-12-23T22:33:21.048Z,4.77
2022-12-23T22:35:58.176Z,4.76
2022-12-23T22:38:25.701Z,4.66
2022-12-23T22:40:52.797Z,4.66
2022-12-23T22:43:19.618Z,4.73
2022-12-23T22:45:46.396Z,4.76
2022-12-23T22:48:13.281Z,4.75
2022-12-23T22:50:39.807Z,4.77
2022-12-23T22:53:06.175Z,4.78
2022-12-23T22:55:32.619Z,4.71
2022-12-23T22:57:58.963Z,4.68
2022-12-23T23:00:25.576Z,4.66
2022-12-23T23:02:51.923Z,4.66
2022-12-23T23:05:18.337Z,4.66
2022-12-23T23:07:44.711Z,4.68
2022-12-23T23:10:11.454Z,4.64
2022-12-23T23:12:38.147Z,4.64
2022-12-23T23:15:04.861Z,4.65
2022-12-23T23:17:31.201Z,4.61
2022-12-23T23:19:57.742Z,4.61
2022-12-23T23:22:25.308Z,4.61
2022-12-23T23:24:52.412Z,4.56
2022-12-23T23:27:19.118Z,4.53
2022-12-23T23:29:45.612Z,4.48
2022-12-23T23:32:12.021Z,4.48
2022-12-23T23:34:38.715Z,4.50
2022-12-23T23:37:05.248Z,4.48
2022-12-23T23:39:31.940Z,4.53
2022-12-23T23:41:58.510Z,4.49
2022-12-23T23:44:24.955Z,4.47
2022-12-23T23:46:51.301Z,4.45
2022-12-23T23:49:17.861Z,4.41
2022-12-23T23:51:44.272Z,4.46
2022-12-23T23:54:10.745Z,4.42
2022-12-23T23:56:39.079Z,4.42
2022-12-23T23:59:06.537Z,4.46
